sensor_id;sensor_type;location;lat;lon;timestamp;P1;durP1;ratioP1;P2;durP2;ratioP2
44764;SDS011;30484;52.382;5.260;2023-09-30T00:00:06;25.38;;;7.18;;
44764;SDS011;30484;52.382;5.260;2023-09-30T00:02:36;23.88;;;6.72;;
44764;SDS011;30484;52.382;5.260;2023-09-30T00:05:06;34.03;;;7.05;;
44764;SDS011;30484;52.382;5.260;2023-09-30T00:07:36;24.75;;;7.50;;
44764;SDS011;30484;52.382;5.260;2023-09-30T00:10:05;26.98;;;7.10;;
44764;SDS011;30484;52.382;5.260;2023-09-30T00:12:36;23.95;;;6.78;;
44764;SDS011;30484;52.382;5.260;2023-09-30T00:15:05;28.35;;;7.07;;
44764;SDS011;30484;52.382;5.260;2023-09-30T00:17:35;23.17;;;6.60;;
44764;SDS011;30484;52.382;5.260;2023-09-30T00:20:04;21.55;;;6.82;;
44764;SDS011;30484;52.382;5.260;2023-09-30T00:22:36;26.35;;;6.45;;
44764;SDS011;30484;52.382;5.260;2023-09-30T00:25:05;29.38;;;7.43;;
44764;SDS011;30484;52.382;5.260;2023-09-30T00:27:34;28.20;;;7.70;;
44764;SDS011;30484;52.382;5.260;2023-09-30T00:30:04;22.80;;;6.28;;
44764;SDS011;30484;52.382;5.260;2023-09-30T00:32:34;27.75;;;7.30;;
44764;SDS011;30484;52.382;5.260;2023-09-30T00:35:03;17.42;;;6.22;;
44764;SDS011;30484;52.382;5.260;2023-09-30T00:37:37;24.42;;;7.25;;
44764;SDS011;30484;52.382;5.260;2023-09-30T00:40:06;23.95;;;6.65;;
44764;SDS011;30484;52.382;5.260;2023-09-30T00:42:38;24.33;;;7.18;;
44764;SDS011;30484;52.382;5.260;2023-09-30T00:45:07;27.60;;;7.70;;
44764;SDS011;30484;52.382;5.260;2023-09-30T00:47:37;21.42;;;6.20;;
44764;SDS011;30484;52.382;5.260;2023-09-30T00:50:07;29.17;;;7.38;;
44764;SDS011;30484;52.382;5.260;2023-09-30T00:52:38;27.33;;;7.55;;
44764;SDS011;30484;52.382;5.260;2023-09-30T00:55:08;25.10;;;6.82;;
44764;SDS011;30484;52.382;5.260;2023-09-30T00:57:37;32.35;;;7.13;;
44764;SDS011;30484;52.382;5.260;2023-09-30T01:00:07;26.25;;;6.80;;
44764;SDS011;30484;52.382;5.260;2023-09-30T01:02:38;26.77;;;7.43;;
44764;SDS011;30484;52.382;5.260;2023-09-30T01:05:10;33.45;;;7.45;;
44764;SDS011;30484;52.382;5.260;2023-09-30T01:07:42;25.20;;;7.22;;
44764;SDS011;30484;52.382;5.260;2023-09-30T01:10:10;24.73;;;7.90;;
44764;SDS011;30484;52.382;5.260;2023-09-30T01:12:39;33.10;;;7.25;;
44764;SDS011;30484;52.382;5.260;2023-09-30T01:15:07;28.98;;;8.05;;
44764;SDS011;30484;52.382;5.260;2023-09-30T01:17:37;36.65;;;9.25;;
44764;SDS011;30484;52.382;5.260;2023-09-30T01:20:05;19.05;;;7.88;;
44764;SDS011;30484;52.382;5.260;2023-09-30T01:22:37;32.10;;;8.43;;
44764;SDS011;30484;52.382;5.260;2023-09-30T01:25:06;32.22;;;8.85;;
44764;SDS011;30484;52.382;5.260;2023-09-30T01:27:36;33.03;;;9.75;;
44764;SDS011;30484;52.382;5.260;2023-09-30T01:30:05;29.70;;;10.10;;
44764;SDS011;30484;52.382;5.260;2023-09-30T01:32:37;32.72;;;10.57;;
44764;SDS011;30484;52.382;5.260;2023-09-30T01:35:06;36.85;;;8.82;;
44764;SDS011;30484;52.382;5.260;2023-09-30T01:37:37;36.40;;;10.25;;
44764;SDS011;30484;52.382;5.260;2023-09-30T01:40:06;36.60;;;10.98;;
44764;SDS011;30484;52.382;5.260;2023-09-30T01:42:37;35.63;;;10.52;;
44764;SDS011;30484;52.382;5.260;2023-09-30T01:45:06;37.60;;;11.90;;
44764;SDS011;30484;52.382;5.260;2023-09-30T01:47:36;31.88;;;11.63;;
44764;SDS011;30484;52.382;5.260;2023-09-30T01:50:05;43.65;;;11.50;;
44764;SDS011;30484;52.382;5.260;2023-09-30T01:52:35;32.45;;;12.50;;
44764;SDS011;30484;52.382;5.260;2023-09-30T01:55:05;44.35;;;12.40;;
44764;SDS011;30484;52.382;5.260;2023-09-30T01:57:34;35.03;;;12.93;;
44764;SDS011;30484;52.382;5.260;2023-09-30T02:00:06;46.08;;;12.73;;
44764;SDS011;30484;52.382;5.260;2023-09-30T02:02:36;36.53;;;13.85;;
44764;SDS011;30484;52.382;5.260;2023-09-30T02:05:06;32.90;;;12.82;;
44764;SDS011;30484;52.382;5.260;2023-09-30T02:07:36;38.63;;;13.57;;
44764;SDS011;30484;52.382;5.260;2023-09-30T02:10:07;35.70;;;13.60;;
44764;SDS011;30484;52.382;5.260;2023-09-30T02:12:36;51.53;;;14.45;;
44764;SDS011;30484;52.382;5.260;2023-09-30T02:15:06;35.03;;;13.55;;
44764;SDS011;30484;52.382;5.260;2023-09-30T02:17:36;39.42;;;13.57;;
44764;SDS011;30484;52.382;5.260;2023-09-30T02:20:05;42.50;;;13.88;;
44764;SDS011;30484;52.382;5.260;2023-09-30T02:22:39;35.08;;;14.00;;
44764;SDS011;30484;52.382;5.260;2023-09-30T02:25:10;33.80;;;13.20;;
44764;SDS011;30484;52.382;5.260;2023-09-30T02:27:39;42.75;;;14.57;;
44764;SDS011;30484;52.382;5.260;2023-09-30T02:30:10;37.13;;;14.00;;
44764;SDS011;30484;52.382;5.260;2023-09-30T02:32:42;37.88;;;13.88;;
44764;SDS011;30484;52.382;5.260;2023-09-30T02:35:13;36.38;;;13.57;;
44764;SDS011;30484;52.382;5.260;2023-09-30T02:37:42;38.75;;;13.82;;
44764;SDS011;30484;52.382;5.260;2023-09-30T02:40:12;44.17;;;14.32;;
44764;SDS011;30484;52.382;5.260;2023-09-30T02:42:41;37.70;;;15.13;;
44764;SDS011;30484;52.382;5.260;2023-09-30T02:45:10;43.97;;;15.30;;
44764;SDS011;30484;52.382;5.260;2023-09-30T02:47:40;35.58;;;14.85;;
44764;SDS011;30484;52.382;5.260;2023-09-30T02:50:09;40.55;;;15.20;;
44764;SDS011;30484;52.382;5.260;2023-09-30T02:52:38;43.35;;;15.27;;
44764;SDS011;30484;52.382;5.260;2023-09-30T02:55:08;41.00;;;13.52;;
44764;SDS011;30484;52.382;5.260;2023-09-30T02:57:38;38.95;;;14.32;;
44764;SDS011;30484;52.382;5.260;2023-09-30T03:00:08;47.88;;;16.00;;
44764;SDS011;30484;52.382;5.260;2023-09-30T03:02:50;42.83;;;15.70;;
44764;SDS011;30484;52.382;5.260;2023-09-30T03:05:20;40.83;;;15.68;;
44764;SDS011;30484;52.382;5.260;2023-09-30T03:07:50;39.00;;;17.35;;
44764;SDS011;30484;52.382;5.260;2023-09-30T03:10:19;44.33;;;17.88;;
44764;SDS011;30484;52.382;5.260;2023-09-30T03:12:52;54.50;;;18.40;;
44764;SDS011;30484;52.382;5.260;2023-09-30T03:15:22;44.50;;;17.08;;
44764;SDS011;30484;52.382;5.260;2023-09-30T03:17:51;40.30;;;15.13;;
44764;SDS011;30484;52.382;5.260;2023-09-30T03:20:22;38.28;;;16.70;;
44764;SDS011;30484;52.382;5.260;2023-09-30T03:22:51;48.22;;;17.80;;
44764;SDS011;30484;52.382;5.260;2023-09-30T03:25:20;44.97;;;17.88;;
44764;SDS011;30484;52.382;5.260;2023-09-30T03:27:49;48.95;;;18.90;;
44764;SDS011;30484;52.382;5.260;2023-09-30T03:30:19;53.47;;;21.20;;
44764;SDS011;30484;52.382;5.260;2023-09-30T03:32:48;67.93;;;21.63;;
44764;SDS011;30484;52.382;5.260;2023-09-30T03:35:16;54.10;;;22.20;;
44764;SDS011;30484;52.382;5.260;2023-09-30T03:37:45;56.33;;;22.75;;
44764;SDS011;30484;52.382;5.260;2023-09-30T03:40:14;57.72;;;23.25;;
44764;SDS011;30484;52.382;5.260;2023-09-30T03:42:46;66.50;;;25.13;;
44764;SDS011;30484;52.382;5.260;2023-09-30T03:45:16;57.35;;;23.10;;
44764;SDS011;30484;52.382;5.260;2023-09-30T03:47:46;62.47;;;25.83;;
44764;SDS011;30484;52.382;5.260;2023-09-30T03:50:16;73.88;;;24.80;;
44764;SDS011;30484;52.382;5.260;2023-09-30T03:52:44;65.15;;;23.88;;
44764;SDS011;30484;52.382;5.260;2023-09-30T03:55:14;59.92;;;24.92;;
44764;SDS011;30484;52.382;5.260;2023-09-30T03:57:47;62.90;;;25.27;;
44764;SDS011;30484;52.382;5.260;2023-09-30T04:00:19;61.28;;;25.23;;
44764;SDS011;30484;52.382;5.260;2023-09-30T04:02:50;65.18;;;26.15;;
44764;SDS011;30484;52.382;5.260;2023-09-30T04:05:21;76.95;;;27.15;;
44764;SDS011;30484;52.382;5.260;2023-09-30T04:07:55;76.20;;;27.00;;
44764;SDS011;30484;52.382;5.260;2023-09-30T04:10:24;69.22;;;28.02;;
44764;SDS011;30484;52.382;5.260;2023-09-30T04:12:53;71.82;;;27.60;;
44764;SDS011;30484;52.382;5.260;2023-09-30T04:15:23;66.32;;;26.85;;
44764;SDS011;30484;52.382;5.260;2023-09-30T04:17:52;68.40;;;28.05;;
44764;SDS011;30484;52.382;5.260;2023-09-30T04:20:20;67.88;;;27.17;;
44764;SDS011;30484;52.382;5.260;2023-09-30T04:22:53;73.93;;;28.45;;
44764;SDS011;30484;52.382;5.260;2023-09-30T04:25:24;77.50;;;28.15;;
44764;SDS011;30484;52.382;5.260;2023-09-30T04:27:53;75.47;;;26.75;;
44764;SDS011;30484;52.382;5.260;2023-09-30T04:30:23;79.43;;;28.52;;
44764;SDS011;30484;52.382;5.260;2023-09-30T04:32:52;71.97;;;27.80;;
44764;SDS011;30484;52.382;5.260;2023-09-30T04:35:21;63.78;;;26.85;;
44764;SDS011;30484;52.382;5.260;2023-09-30T04:37:53;64.78;;;26.05;;
44764;SDS011;30484;52.382;5.260;2023-09-30T04:40:21;75.90;;;27.48;;
44764;SDS011;30484;52.382;5.260;2023-09-30T04:42:50;61.88;;;26.52;;
44764;SDS011;30484;52.382;5.260;2023-09-30T04:45:20;64.03;;;27.23;;
44764;SDS011;30484;52.382;5.260;2023-09-30T04:47:52;65.78;;;27.08;;
44764;SDS011;30484;52.382;5.260;2023-09-30T04:50:22;65.32;;;27.70;;
44764;SDS011;30484;52.382;5.260;2023-09-30T04:52:51;69.57;;;28.02;;
44764;SDS011;30484;52.382;5.260;2023-09-30T04:55:20;74.95;;;30.00;;
44764;SDS011;30484;52.382;5.260;2023-09-30T04:57:48;63.70;;;27.45;;
44764;SDS011;30484;52.382;5.260;2023-09-30T05:00:18;71.53;;;28.27;;
44764;SDS011;30484;52.382;5.260;2023-09-30T05:02:54;71.05;;;28.83;;
44764;SDS011;30484;52.382;5.260;2023-09-30T05:05:23;69.47;;;27.45;;
44764;SDS011;30484;52.382;5.260;2023-09-30T05:07:51;67.63;;;27.88;;
44764;SDS011;30484;52.382;5.260;2023-09-30T05:10:20;68.93;;;29.35;;
44764;SDS011;30484;52.382;5.260;2023-09-30T05:12:48;77.32;;;29.30;;
44764;SDS011;30484;52.382;5.260;2023-09-30T05:15:20;84.63;;;29.60;;
44764;SDS011;30484;52.382;5.260;2023-09-30T05:17:49;73.53;;;28.80;;
44764;SDS011;30484;52.382;5.260;2023-09-30T05:20:19;72.85;;;29.63;;
44764;SDS011;30484;52.382;5.260;2023-09-30T05:22:49;69.50;;;30.15;;
44764;SDS011;30484;52.382;5.260;2023-09-30T05:25:17;79.60;;;31.13;;
44764;SDS011;30484;52.382;5.260;2023-09-30T05:27:46;72.97;;;31.05;;
44764;SDS011;30484;52.382;5.260;2023-09-30T05:30:15;82.15;;;30.90;;
44764;SDS011;30484;52.382;5.260;2023-09-30T05:32:46;80.57;;;31.38;;
44764;SDS011;30484;52.382;5.260;2023-09-30T05:35:14;80.13;;;31.95;;
44764;SDS011;30484;52.382;5.260;2023-09-30T05:37:45;85.63;;;32.92;;
44764;SDS011;30484;52.382;5.260;2023-09-30T05:40:14;85.53;;;32.92;;
44764;SDS011;30484;52.382;5.260;2023-09-30T05:42:50;76.97;;;31.90;;
44764;SDS011;30484;52.382;5.260;2023-09-30T05:45:21;80.97;;;32.97;;
44764;SDS011;30484;52.382;5.260;2023-09-30T05:47:53;82.18;;;32.55;;
44764;SDS011;30484;52.382;5.260;2023-09-30T05:50:23;86.18;;;34.65;;
44764;SDS011;30484;52.382;5.260;2023-09-30T05:52:55;79.35;;;33.47;;
44764;SDS011;30484;52.382;5.260;2023-09-30T05:55:25;77.65;;;33.60;;
44764;SDS011;30484;52.382;5.260;2023-09-30T05:57:54;77.60;;;32.40;;
44764;SDS011;30484;52.382;5.260;2023-09-30T06:00:23;77.60;;;32.55;;
44764;SDS011;30484;52.382;5.260;2023-09-30T06:02:57;76.57;;;33.05;;
44764;SDS011;30484;52.382;5.260;2023-09-30T06:05:27;78.25;;;33.10;;
44764;SDS011;30484;52.382;5.260;2023-09-30T06:08:00;73.60;;;32.13;;
44764;SDS011;30484;52.382;5.260;2023-09-30T06:10:31;72.13;;;32.30;;
44764;SDS011;30484;52.382;5.260;2023-09-30T06:13:01;67.20;;;31.40;;
44764;SDS011;30484;52.382;5.260;2023-09-30T06:15:30;74.95;;;33.65;;
44764;SDS011;30484;52.382;5.260;2023-09-30T06:17:59;64.70;;;32.03;;
44764;SDS011;30484;52.382;5.260;2023-09-30T06:20:27;75.15;;;30.23;;
44764;SDS011;30484;52.382;5.260;2023-09-30T06:22:57;67.68;;;31.08;;
44764;SDS011;30484;52.382;5.260;2023-09-30T06:25:28;70.60;;;32.60;;
44764;SDS011;30484;52.382;5.260;2023-09-30T06:27:57;72.93;;;31.92;;
44764;SDS011;30484;52.382;5.260;2023-09-30T06:30:27;71.55;;;32.35;;
44764;SDS011;30484;52.382;5.260;2023-09-30T06:33:00;76.60;;;33.05;;
44764;SDS011;30484;52.382;5.260;2023-09-30T06:35:31;74.35;;;32.53;;
44764;SDS011;30484;52.382;5.260;2023-09-30T06:38:05;67.60;;;30.15;;
44764;SDS011;30484;52.382;5.260;2023-09-30T06:40:34;60.65;;;30.70;;
44764;SDS011;30484;52.382;5.260;2023-09-30T06:43:06;65.95;;;29.90;;
44764;SDS011;30484;52.382;5.260;2023-09-30T06:45:36;73.70;;;32.03;;
44764;SDS011;30484;52.382;5.260;2023-09-30T06:48:09;70.28;;;29.80;;
44764;SDS011;30484;52.382;5.260;2023-09-30T06:50:40;64.30;;;28.83;;
44764;SDS011;30484;52.382;5.260;2023-09-30T06:53:13;55.15;;;28.73;;
44764;SDS011;30484;52.382;5.260;2023-09-30T06:55:48;60.90;;;28.88;;
44764;SDS011;30484;52.382;5.260;2023-09-30T06:58:22;60.60;;;29.02;;
44764;SDS011;30484;52.382;5.260;2023-09-30T07:00:51;62.17;;;29.60;;
44764;SDS011;30484;52.382;5.260;2023-09-30T07:03:21;57.05;;;27.83;;
44764;SDS011;30484;52.382;5.260;2023-09-30T07:05:52;53.35;;;27.48;;
44764;SDS011;30484;52.382;5.260;2023-09-30T07:08:24;68.70;;;27.77;;
44764;SDS011;30484;52.382;5.260;2023-09-30T07:10:52;53.60;;;26.45;;
44764;SDS011;30484;52.382;5.260;2023-09-30T07:13:20;57.65;;;28.95;;
44764;SDS011;30484;52.382;5.260;2023-09-30T07:15:53;62.42;;;29.83;;
44764;SDS011;30484;52.382;5.260;2023-09-30T07:18:24;58.17;;;28.27;;
44764;SDS011;30484;52.382;5.260;2023-09-30T07:20:53;58.80;;;30.88;;
44764;SDS011;30484;52.382;5.260;2023-09-30T07:23:21;54.78;;;27.65;;
44764;SDS011;30484;52.382;5.260;2023-09-30T07:25:51;55.13;;;26.95;;
44764;SDS011;30484;52.382;5.260;2023-09-30T07:28:19;52.70;;;26.35;;
44764;SDS011;30484;52.382;5.260;2023-09-30T07:30:48;46.25;;;24.60;;
44764;SDS011;30484;52.382;5.260;2023-09-30T07:33:18;54.28;;;24.98;;
44764;SDS011;30484;52.382;5.260;2023-09-30T07:35:47;46.53;;;22.88;;
44764;SDS011;30484;52.382;5.260;2023-09-30T07:38:15;38.13;;;20.38;;
44764;SDS011;30484;52.382;5.260;2023-09-30T07:40:44;37.97;;;17.98;;
44764;SDS011;30484;52.382;5.260;2023-09-30T07:43:14;34.25;;;16.85;;
44764;SDS011;30484;52.382;5.260;2023-09-30T07:45:44;42.22;;;15.73;;
44764;SDS011;30484;52.382;5.260;2023-09-30T07:48:12;30.10;;;12.60;;
44764;SDS011;30484;52.382;5.260;2023-09-30T07:50:41;28.58;;;13.25;;
44764;SDS011;30484;52.382;5.260;2023-09-30T07:53:09;29.35;;;12.68;;
44764;SDS011;30484;52.382;5.260;2023-09-30T07:55:41;29.33;;;13.00;;
44764;SDS011;30484;52.382;5.260;2023-09-30T07:58:09;30.85;;;12.32;;
44764;SDS011;30484;52.382;5.260;2023-09-30T08:00:39;19.92;;;10.40;;
44764;SDS011;30484;52.382;5.260;2023-09-30T08:03:11;28.20;;;11.55;;
44764;SDS011;30484;52.382;5.260;2023-09-30T08:05:39;24.58;;;11.88;;
44764;SDS011;30484;52.382;5.260;2023-09-30T08:08:09;25.15;;;11.80;;
44764;SDS011;30484;52.382;5.260;2023-09-30T08:10:37;26.20;;;12.15;;
44764;SDS011;30484;52.382;5.260;2023-09-30T08:13:10;24.52;;;10.60;;
44764;SDS011;30484;52.382;5.260;2023-09-30T08:15:40;22.45;;;10.95;;
44764;SDS011;30484;52.382;5.260;2023-09-30T08:18:12;29.52;;;10.93;;
44764;SDS011;30484;52.382;5.260;2023-09-30T08:20:41;19.38;;;10.07;;
44764;SDS011;30484;52.382;5.260;2023-09-30T08:23:09;20.02;;;9.93;;
44764;SDS011;30484;52.382;5.260;2023-09-30T08:25:40;23.23;;;9.73;;
44764;SDS011;30484;52.382;5.260;2023-09-30T08:28:10;26.73;;;10.25;;
44764;SDS011;30484;52.382;5.260;2023-09-30T08:30:41;27.58;;;9.82;;
44764;SDS011;30484;52.382;5.260;2023-09-30T08:33:09;20.90;;;9.45;;
44764;SDS011;30484;52.382;5.260;2023-09-30T08:35:43;27.88;;;9.27;;
44764;SDS011;30484;52.382;5.260;2023-09-30T08:38:11;20.50;;;8.98;;
44764;SDS011;30484;52.382;5.260;2023-09-30T08:40:41;24.95;;;9.38;;
44764;SDS011;30484;52.382;5.260;2023-09-30T08:43:12;22.92;;;8.90;;
44764;SDS011;30484;52.382;5.260;2023-09-30T08:45:55;21.42;;;8.95;;
44764;SDS011;30484;52.382;5.260;2023-09-30T08:48:25;22.25;;;8.68;;
44764;SDS011;30484;52.382;5.260;2023-09-30T08:51:01;22.60;;;8.52;;
44764;SDS011;30484;52.382;5.260;2023-09-30T08:53:42;21.17;;;8.48;;
44764;SDS011;30484;52.382;5.260;2023-09-30T08:56:12;24.33;;;8.00;;
44764;SDS011;30484;52.382;5.260;2023-09-30T08:58:43;18.42;;;7.85;;
44764;SDS011;30484;52.382;5.260;2023-09-30T09:01:13;19.85;;;7.88;;
44764;SDS011;30484;52.382;5.260;2023-09-30T09:03:57;24.42;;;8.57;;
44764;SDS011;30484;52.382;5.260;2023-09-30T09:06:30;17.25;;;7.65;;
44764;SDS011;30484;52.382;5.260;2023-09-30T09:09:12;21.92;;;8.00;;
44764;SDS011;30484;52.382;5.260;2023-09-30T09:11:46;21.25;;;8.10;;
44764;SDS011;30484;52.382;5.260;2023-09-30T09:14:18;23.10;;;7.78;;
44764;SDS011;30484;52.382;5.260;2023-09-30T09:16:51;19.33;;;7.47;;
44764;SDS011;30484;52.382;5.260;2023-09-30T09:19:22;16.60;;;7.03;;
44764;SDS011;30484;52.382;5.260;2023-09-30T09:21:54;19.60;;;6.72;;
44764;SDS011;30484;52.382;5.260;2023-09-30T09:24:27;16.92;;;6.88;;
44764;SDS011;30484;52.382;5.260;2023-09-30T09:27:03;22.30;;;6.80;;
44764;SDS011;30484;52.382;5.260;2023-09-30T09:29:33;17.40;;;6.60;;
44764;SDS011;30484;52.382;5.260;2023-09-30T09:32:10;16.00;;;6.50;;
44764;SDS011;30484;52.382;5.260;2023-09-30T09:34:40;19.75;;;6.68;;
44764;SDS011;30484;52.382;5.260;2023-09-30T09:37:14;15.57;;;6.28;;
44764;SDS011;30484;52.382;5.260;2023-09-30T09:39:48;15.18;;;5.55;;
44764;SDS011;30484;52.382;5.260;2023-09-30T09:42:28;16.55;;;6.13;;
44764;SDS011;30484;52.382;5.260;2023-09-30T09:45:03;17.45;;;5.45;;
44764;SDS011;30484;52.382;5.260;2023-09-30T09:47:34;11.60;;;5.03;;
44764;SDS011;30484;52.382;5.260;2023-09-30T09:50:04;15.57;;;5.95;;
44764;SDS011;30484;52.382;5.260;2023-09-30T09:52:34;17.80;;;5.93;;
44764;SDS011;30484;52.382;5.260;2023-09-30T09:55:02;14.55;;;5.20;;
44764;SDS011;30484;52.382;5.260;2023-09-30T09:57:33;19.83;;;5.70;;
44764;SDS011;30484;52.382;5.260;2023-09-30T10:00:07;14.85;;;5.70;;
44764;SDS011;30484;52.382;5.260;2023-09-30T10:02:43;14.95;;;5.30;;
44764;SDS011;30484;52.382;5.260;2023-09-30T10:05:13;12.32;;;4.78;;
44764;SDS011;30484;52.382;5.260;2023-09-30T10:07:44;14.48;;;4.35;;
44764;SDS011;30484;52.382;5.260;2023-09-30T10:10:19;14.90;;;4.78;;
44764;SDS011;30484;52.382;5.260;2023-09-30T10:12:51;16.05;;;4.50;;
44764;SDS011;30484;52.382;5.260;2023-09-30T10:15:38;14.27;;;4.85;;
44764;SDS011;30484;52.382;5.260;2023-09-30T10:18:09;16.00;;;4.88;;
44764;SDS011;30484;52.382;5.260;2023-09-30T10:20:42;12.98;;;4.38;;
44764;SDS011;30484;52.382;5.260;2023-09-30T10:23:17;14.13;;;5.05;;
44764;SDS011;30484;52.382;5.260;2023-09-30T10:25:53;15.13;;;5.13;;
44764;SDS011;30484;52.382;5.260;2023-09-30T10:28:42;14.40;;;4.50;;
44764;SDS011;30484;52.382;5.260;2023-09-30T10:31:14;18.73;;;6.10;;
44764;SDS011;30484;52.382;5.260;2023-09-30T10:36:52;20.73;;;6.18;;
44764;SDS011;30484;52.382;5.260;2023-09-30T10:42:44;18.92;;;6.25;;
44764;SDS011;30484;52.382;5.260;2023-09-30T10:51:11;12.82;;;5.47;;
44764;SDS011;30484;52.382;5.260;2023-09-30T10:53:46;18.52;;;5.63;;
44764;SDS011;30484;52.382;5.260;2023-09-30T10:56:17;15.63;;;5.47;;
44764;SDS011;30484;52.382;5.260;2023-09-30T10:58:47;16.85;;;5.47;;
44764;SDS011;30484;52.382;5.260;2023-09-30T11:01:18;22.27;;;5.90;;
44764;SDS011;30484;52.382;5.260;2023-09-30T11:03:48;15.57;;;5.93;;
44764;SDS011;30484;52.382;5.260;2023-09-30T11:06:21;16.05;;;5.38;;
44764;SDS011;30484;52.382;5.260;2023-09-30T11:08:51;18.30;;;5.47;;
44764;SDS011;30484;52.382;5.260;2023-09-30T11:11:35;13.95;;;5.10;;
44764;SDS011;30484;52.382;5.260;2023-09-30T11:14:16;16.88;;;4.38;;
44764;SDS011;30484;52.382;5.260;2023-09-30T11:16:46;14.90;;;5.15;;
44764;SDS011;30484;52.382;5.260;2023-09-30T11:19:15;15.73;;;4.97;;
44764;SDS011;30484;52.382;5.260;2023-09-30T11:21:46;14.40;;;4.22;;
44764;SDS011;30484;52.382;5.260;2023-09-30T11:24:17;12.13;;;3.85;;
44764;SDS011;30484;52.382;5.260;2023-09-30T11:26:46;14.80;;;3.95;;
44764;SDS011;30484;52.382;5.260;2023-09-30T11:29:20;13.30;;;3.20;;
44764;SDS011;30484;52.382;5.260;2023-09-30T11:31:49;12.05;;;2.75;;
44764;SDS011;30484;52.382;5.260;2023-09-30T11:34:19;14.30;;;2.97;;
44764;SDS011;30484;52.382;5.260;2023-09-30T11:37:00;11.73;;;3.15;;
44764;SDS011;30484;52.382;5.260;2023-09-30T11:39:30;15.35;;;3.55;;
44764;SDS011;30484;52.382;5.260;2023-09-30T11:41:59;11.82;;;3.58;;
44764;SDS011;30484;52.382;5.260;2023-09-30T11:44:28;14.90;;;3.95;;
44764;SDS011;30484;52.382;5.260;2023-09-30T11:46:57;11.88;;;3.38;;
44764;SDS011;30484;52.382;5.260;2023-09-30T11:49:32;17.33;;;4.10;;
44764;SDS011;30484;52.382;5.260;2023-09-30T11:52:04;12.23;;;3.47;;
44764;SDS011;30484;52.382;5.260;2023-09-30T11:54:36;9.70;;;3.17;;
44764;SDS011;30484;52.382;5.260;2023-09-30T11:57:10;11.25;;;3.72;;
44764;SDS011;30484;52.382;5.260;2023-09-30T11:59:42;11.57;;;3.63;;
44764;SDS011;30484;52.382;5.260;2023-09-30T12:02:12;11.93;;;3.33;;
44764;SDS011;30484;52.382;5.260;2023-09-30T12:04:42;15.05;;;4.18;;
44764;SDS011;30484;52.382;5.260;2023-09-30T12:07:13;14.63;;;3.90;;
44764;SDS011;30484;52.382;5.260;2023-09-30T12:09:42;9.48;;;3.13;;
44764;SDS011;30484;52.382;5.260;2023-09-30T12:12:10;13.75;;;3.45;;
44764;SDS011;30484;52.382;5.260;2023-09-30T12:14:41;16.85;;;4.53;;
44764;SDS011;30484;52.382;5.260;2023-09-30T12:17:09;10.98;;;4.00;;
44764;SDS011;30484;52.382;5.260;2023-09-30T12:19:39;12.95;;;3.85;;
44764;SDS011;30484;52.382;5.260;2023-09-30T12:22:09;11.15;;;3.78;;
44764;SDS011;30484;52.382;5.260;2023-09-30T12:24:39;14.63;;;4.22;;
44764;SDS011;30484;52.382;5.260;2023-09-30T12:27:07;15.77;;;4.43;;
44764;SDS011;30484;52.382;5.260;2023-09-30T12:29:36;12.50;;;3.42;;
44764;SDS011;30484;52.382;5.260;2023-09-30T12:32:05;14.75;;;3.95;;
44764;SDS011;30484;52.382;5.260;2023-09-30T12:34:34;11.55;;;3.88;;
44764;SDS011;30484;52.382;5.260;2023-09-30T12:37:03;10.80;;;3.30;;
44764;SDS011;30484;52.382;5.260;2023-09-30T12:39:31;14.93;;;4.10;;
44764;SDS011;30484;52.382;5.260;2023-09-30T12:42:01;15.90;;;3.80;;
44764;SDS011;30484;52.382;5.260;2023-09-30T12:44:35;10.20;;;3.50;;
44764;SDS011;30484;52.382;5.260;2023-09-30T12:47:03;11.73;;;3.42;;
44764;SDS011;30484;52.382;5.260;2023-09-30T12:49:33;11.57;;;3.53;;
44764;SDS011;30484;52.382;5.260;2023-09-30T12:52:01;13.25;;;3.58;;
44764;SDS011;30484;52.382;5.260;2023-09-30T12:54:30;9.50;;;2.70;;
44764;SDS011;30484;52.382;5.260;2023-09-30T12:57:01;12.20;;;4.18;;
44764;SDS011;30484;52.382;5.260;2023-09-30T12:59:31;15.15;;;3.70;;
44764;SDS011;30484;52.382;5.260;2023-09-30T13:02:00;14.02;;;3.60;;
44764;SDS011;30484;52.382;5.260;2023-09-30T13:04:29;9.20;;;2.92;;
44764;SDS011;30484;52.382;5.260;2023-09-30T13:06:57;12.50;;;2.80;;
44764;SDS011;30484;52.382;5.260;2023-09-30T13:09:25;10.73;;;2.47;;
44764;SDS011;30484;52.382;5.260;2023-09-30T13:11:53;7.30;;;2.45;;
44764;SDS011;30484;52.382;5.260;2023-09-30T13:14:24;14.05;;;3.15;;
44764;SDS011;30484;52.382;5.260;2023-09-30T13:16:54;10.43;;;2.70;;
44764;SDS011;30484;52.382;5.260;2023-09-30T13:19:22;14.45;;;2.95;;
44764;SDS011;30484;52.382;5.260;2023-09-30T13:21:51;16.92;;;3.95;;
44764;SDS011;30484;52.382;5.260;2023-09-30T13:24:20;8.77;;;2.72;;
44764;SDS011;30484;52.382;5.260;2023-09-30T13:26:48;12.45;;;2.97;;
44764;SDS011;30484;52.382;5.260;2023-09-30T13:29:18;9.95;;;2.75;;
44764;SDS011;30484;52.382;5.260;2023-09-30T13:31:48;12.93;;;3.20;;
44764;SDS011;30484;52.382;5.260;2023-09-30T13:34:16;8.27;;;2.92;;
44764;SDS011;30484;52.382;5.260;2023-09-30T13:36:45;14.90;;;3.33;;
44764;SDS011;30484;52.382;5.260;2023-09-30T13:39:13;16.40;;;3.40;;
44764;SDS011;30484;52.382;5.260;2023-09-30T13:41:43;14.93;;;3.40;;
44764;SDS011;30484;52.382;5.260;2023-09-30T13:44:13;13.43;;;3.00;;
44764;SDS011;30484;52.382;5.260;2023-09-30T13:46:42;9.25;;;2.75;;
44764;SDS011;30484;52.382;5.260;2023-09-30T13:49:12;8.70;;;2.75;;
44764;SDS011;30484;52.382;5.260;2023-09-30T13:51:40;12.63;;;3.22;;
44764;SDS011;30484;52.382;5.260;2023-09-30T13:54:08;11.52;;;2.97;;
44764;SDS011;30484;52.382;5.260;2023-09-30T13:56:37;17.42;;;3.08;;
44764;SDS011;30484;52.382;5.260;2023-09-30T13:59:05;14.05;;;3.30;;
44764;SDS011;30484;52.382;5.260;2023-09-30T14:01:36;9.88;;;2.85;;
44764;SDS011;30484;52.382;5.260;2023-09-30T14:04:08;11.88;;;3.28;;
44764;SDS011;30484;52.382;5.260;2023-09-30T14:06:38;15.27;;;3.17;;
44764;SDS011;30484;52.382;5.260;2023-09-30T14:09:07;11.93;;;2.97;;
44764;SDS011;30484;52.382;5.260;2023-09-30T14:12:00;11.73;;;3.10;;
44764;SDS011;30484;52.382;5.260;2023-09-30T14:14:31;12.02;;;2.90;;
44764;SDS011;30484;52.382;5.260;2023-09-30T14:17:00;15.23;;;3.38;;
44764;SDS011;30484;52.382;5.260;2023-09-30T14:19:34;15.23;;;3.70;;
44764;SDS011;30484;52.382;5.260;2023-09-30T14:22:03;15.45;;;3.45;;
44764;SDS011;30484;52.382;5.260;2023-09-30T14:24:32;12.50;;;3.35;;
44764;SDS011;30484;52.382;5.260;2023-09-30T14:27:00;10.18;;;2.92;;
44764;SDS011;30484;52.382;5.260;2023-09-30T14:29:29;16.80;;;3.78;;
44764;SDS011;30484;52.382;5.260;2023-09-30T14:31:58;15.70;;;3.83;;
44764;SDS011;30484;52.382;5.260;2023-09-30T14:34:27;14.73;;;3.83;;
44764;SDS011;30484;52.382;5.260;2023-09-30T14:36:55;14.63;;;3.67;;
44764;SDS011;30484;52.382;5.260;2023-09-30T14:39:25;14.35;;;4.03;;
44764;SDS011;30484;52.382;5.260;2023-09-30T14:41:54;17.40;;;3.72;;
44764;SDS011;30484;52.382;5.260;2023-09-30T14:44:22;16.20;;;4.05;;
44764;SDS011;30484;52.382;5.260;2023-09-30T14:46:51;14.05;;;3.80;;
44764;SDS011;30484;52.382;5.260;2023-09-30T14:49:22;16.35;;;3.63;;
44764;SDS011;30484;52.382;5.260;2023-09-30T14:51:51;17.48;;;4.75;;
44764;SDS011;30484;52.382;5.260;2023-09-30T14:54:19;17.83;;;4.45;;
44764;SDS011;30484;52.382;5.260;2023-09-30T14:56:50;15.27;;;4.10;;
44764;SDS011;30484;52.382;5.260;2023-09-30T14:59:18;14.50;;;3.70;;